Time;durP1;ratioP1;P1;durP2;ratioP2;P2;SDS_P1;SDS_P2;PMS_P1;PMS_P2;Temp;Humidity;BMP_temperature;BMP_pressure;BME280_temperature;BME280_humidity;BME280_pressure;Samples;Min_cycle;Max_cycle;Signal;HPM_P1;HPM_P2
2021/12/18 00:02:03;;;;;;;7.38;5.78;;;7.30;99.90;;;;;;4927594;28;88426;-43
2021/12/18 00:04:29;;;;;;;7.00;5.60;;;7.30;99.90;;;;;;4927267;28;90339;-42
2021/12/18 00:06:55;;;;;;;7.82;5.45;;;7.30;99.90;;;;;;4927841;28;90179;-43
2021/12/18 00:09:21;;;;;;;12.43;6.03;;;7.30;99.90;;;;;;4927860;28;88847;-45
2021/12/18 00:11:48;;;;;;;15.32;5.40;;;7.30;99.90;;;;;;4926259;28;89039;-43
2021/12/18 00:14:15;;;;;;;6.32;5.00;;;7.30;99.90;;;;;;4927840;28;89168;-45
2021/12/18 00:16:41;;;;;;;8.75;4.70;;;7.30;99.90;;;;;;4927042;28;89448;-46
2021/12/18 00:19:06;;;;;;;6.55;4.57;;;7.30;99.90;;;;;;4927897;28;87701;-42
2021/12/18 00:21:36;;;;;;;5.18;4.68;;;7.20;99.90;;;;;;4925919;28;89031;-44
2021/12/18 00:24:04;;;;;;;5.35;3.72;;;7.20;99.90;;;;;;4926641;28;89906;-42
2021/12/18 00:26:30;;;;;;;8.63;4.88;;;7.20;99.90;;;;;;4926823;28;88634;-40
2021/12/18 00:28:56;;;;;;;6.85;4.28;;;7.20;99.90;;;;;;4927328;28;88716;-45
2021/12/18 00:31:22;;;;;;;13.68;5.03;;;7.10;99.90;;;;;;4927356;28;89133;-47
2021/12/18 00:33:47;;;;;;;5.78;5.00;;;7.20;99.90;;;;;;4926785;28;90388;-42
2021/12/18 00:36:13;;;;;;;6.20;5.07;;;7.10;99.90;;;;;;4924720;28;90000;-43
2021/12/18 00:38:41;;;;;;;5.65;4.47;;;7.10;99.90;;;;;;4926345;28;88889;-43
2021/12/18 00:43:37;;;;;;;12.30;5.40;;;7.10;99.90;;;;;;4925805;28;90918;-39
2021/12/18 00:46:04;;;;;;;7.50;5.10;;;7.20;99.90;;;;;;4925774;28;89797;-43
2021/12/18 00:48:30;;;;;;;9.02;5.13;;;7.10;99.90;;;;;;4927275;28;88662;-43
2021/12/18 00:50:56;;;;;;;6.18;5.50;;;7.10;99.90;;;;;;4926758;28;88174;-43
2021/12/18 00:53:22;;;;;;;15.48;5.80;;;7.10;99.90;;;;;;4926275;28;90897;-41
2021/12/18 00:55:51;;;;;;;6.68;5.05;;;7.10;99.90;;;;;;4926302;28;88267;-45
2021/12/18 00:58:16;;;;;;;9.32;6.63;;;7.10;99.90;;;;;;4927118;28;88119;-43
2021/12/18 01:00:42;;;;;;;28.08;8.15;;;7.10;99.90;;;;;;4926168;28;88765;-41
2021/12/18 01:03:16;;;;;;;19.83;7.18;;;7.10;99.90;;;;;;4926932;28;89983;-46
2021/12/18 01:05:43;;;;;;;32.75;7.18;;;7.10;99.90;;;;;;4926309;28;89456;-44
2021/12/18 01:08:09;;;;;;;31.38;7.47;;;7.10;99.90;;;;;;4926616;28;88517;-45
2021/12/18 01:11:08;;;;;;;55.42;8.57;;;7.20;99.90;;;;;;4926838;28;88795;-42
2021/12/18 01:13:35;;;;;;;9.77;6.28;;;7.10;99.90;;;;;;4926186;28;91057;-44
2021/12/18 01:16:13;;;;;;;16.33;6.25;;;7.10;99.90;;;;;;4924769;28;89715;-40
2021/12/18 01:24:09;;;;;;;23.45;6.32;;;7.00;99.90;;;;;;4923650;28;88791;-42
2021/12/18 01:26:35;;;;;;;8.63;5.80;;;7.00;99.90;;;;;;4926118;28;89499;-42
2021/12/18 01:29:01;;;;;;;15.35;5.65;;;7.00;99.90;;;;;;4926910;28;88668;-42
2021/12/18 01:31:26;;;;;;;28.02;6.45;;;7.00;99.90;;;;;;4926406;28;88194;-44
2021/12/18 01:33:52;;;;;;;17.73;5.45;;;7.00;99.90;;;;;;4925595;28;90484;-46
2021/12/18 01:36:19;;;;;;;7.15;4.70;;;7.00;99.90;;;;;;4925480;28;90202;-42
2021/12/18 01:38:45;;;;;;;5.43;4.00;;;7.00;99.90;;;;;;4925872;28;88772;-44
2021/12/18 01:41:11;;;;;;;5.30;3.80;;;7.00;99.90;;;;;;4926610;28;88484;-46
2021/12/18 01:52:04;;;;;;;8.90;3.78;;;6.90;99.90;;;;;;4923944;28;89224;-45
2021/12/18 01:54:31;;;;;;;11.32;3.30;;;6.80;99.90;;;;;;4926233;28;89721;-42
2021/12/18 01:56:59;;;;;;;7.65;3.65;;;6.80;99.90;;;;;;4925648;28;89825;-42
2021/12/18 01:59:36;;;;;;;9.80;4.53;;;6.80;99.90;;;;;;4925606;28;88869;-48
2021/12/18 02:02:03;;;;;;;5.60;4.10;;;6.80;99.90;;;;;;4925188;28;89194;-39
2021/12/18 02:04:29;;;;;;;6.18;3.33;;;6.70;99.90;;;;;;4926104;28;90101;-39
2021/12/18 02:06:55;;;;;;;5.13;3.50;;;6.70;99.90;;;;;;4925773;28;88226;-46
2021/12/18 02:09:25;;;;;;;4.75;3.70;;;6.70;99.90;;;;;;4926664;28;88917;-44
2021/12/18 02:11:52;;;;;;;3.78;2.90;;;6.70;99.90;;;;;;4925464;28;87522;-46
2021/12/18 02:20:11;;;;;;;4.93;3.38;;;6.70;99.90;;;;;;4926341;28;88093;-43
2021/12/18 02:22:37;;;;;;;11.35;3.47;;;6.70;99.90;;;;;;4925131;28;88516;-46
2021/12/18 02:25:03;;;;;;;4.88;3.28;;;6.70;99.90;;;;;;4924929;28;90375;-45
2021/12/18 02:27:30;;;;;;;3.92;3.53;;;6.70;99.90;;;;;;4924484;28;90217;-48
2021/12/18 02:29:56;;;;;;;6.55;2.88;;;6.70;99.90;;;;;;4925398;28;88281;-43
2021/12/18 02:32:22;;;;;;;4.78;3.78;;;6.70;99.90;;;;;;4925502;28;88723;-39
2021/12/18 02:34:55;;;;;;;4.70;3.15;;;6.70;99.90;;;;;;4925426;28;88753;-41
2021/12/18 02:42:59;;;;;;;4.40;3.03;;;6.70;99.90;;;;;;5519705;23;88418;-33
2021/12/18 02:45:24;;;;;;;3.75;2.90;;;6.70;99.90;;;;;;4941518;28;90057;-36
2021/12/18 02:47:53;;;;;;;3.53;3.15;;;6.70;99.90;;;;;;4941666;28;89966;-34
2021/12/18 02:50:19;;;;;;;5.80;2.00;;;6.70;99.90;;;;;;4942280;28;89031;-34
2021/12/18 02:52:44;;;;;;;4.20;3.10;;;6.70;99.90;;;;;;4940432;28;87734;-34
2021/12/18 02:55:11;;;;;;;4.28;2.90;;;6.70;99.90;;;;;;4941450;28;92409;-35
2021/12/18 02:57:36;;;;;;;3.58;2.42;;;6.70;99.90;;;;;;4941355;28;89289;-35
2021/12/18 03:00:04;;;;;;;3.42;2.47;;;6.70;99.90;;;;;;4941320;28;88879;-34
2021/12/18 03:02:34;;;;;;;2.45;2.10;;;6.70;99.90;;;;;;4941512;28;88565;-35
2021/12/18 03:05:05;;;;;;;3.35;1.80;;;6.70;99.90;;;;;;4941292;28;88962;-35
2021/12/18 03:07:31;;;;;;;2.13;1.73;;;6.70;99.90;;;;;;4941430;28;89807;-35
2021/12/18 03:25:41;;;;;;;2.33;2.13;;;6.70;99.90;;;;;;4942163;28;91594;-37
2021/12/18 03:28:07;;;;;;;2.75;1.95;;;6.70;99.90;;;;;;4940887;28;89869;-34
2021/12/18 03:30:34;;;;;;;1.98;1.60;;;6.70;99.90;;;;;;4941713;28;89712;-32
2021/12/18 03:33:00;;;;;;;3.63;1.75;;;6.70;99.90;;;;;;4941556;28;89559;-32
2021/12/18 03:35:26;;;;;;;2.45;1.80;;;6.70;99.90;;;;;;4941267;28;90298;-35
2021/12/18 03:37:52;;;;;;;2.28;1.98;;;6.70;99.90;;;;;;4940813;28;89778;-32
2021/12/18 03:40:22;;;;;;;2.05;1.75;;;6.60;99.90;;;;;;4941247;28;88454;-36
2021/12/18 03:42:48;;;;;;;2.20;1.83;;;6.60;99.90;;;;;;4940640;28;89048;-33
2021/12/18 03:45:16;;;;;;;2.28;1.70;;;6.60;99.90;;;;;;4940930;28;90429;-34
2021/12/18 03:47:42;;;;;;;2.03;1.80;;;6.60;99.90;;;;;;4942495;28;88678;-35
2021/12/18 03:50:09;;;;;;;2.40;1.38;;;6.60;99.90;;;;;;4944223;28;87751;-34
2021/12/18 03:52:34;;;;;;;2.65;1.92;;;6.50;99.90;;;;;;4943921;28;89290;-36
2021/12/18 03:55:00;;;;;;;2.40;1.60;;;6.50;99.90;;;;;;4944451;28;90035;-35
2021/12/18 03:57:26;;;;;;;3.40;1.92;;;6.50;99.90;;;;;;4944098;28;89621;-33
2021/12/18 03:59:52;;;;;;;2.72;2.22;;;6.60;99.90;;;;;;4943516;28;88457;-33
2021/12/18 04:02:18;;;;;;;1.52;1.35;;;6.50;99.90;;;;;;4943956;28;89988;-35
2021/12/18 04:04:44;;;;;;;1.42;1.33;;;6.50;99.90;;;;;;4943050;28;90381;-35
2021/12/18 04:07:09;;;;;;;2.63;1.77;;;6.50;99.90;;;;;;4944345;28;90473;-32
2021/12/18 04:09:35;;;;;;;1.92;1.40;;;6.50;99.90;;;;;;4944662;28;89289;-32
2021/12/18 04:12:02;;;;;;;2.63;1.10;;;6.50;99.90;;;;;;4943891;28;89646;-34
2021/12/18 04:14:27;;;;;;;3.63;2.05;;;6.50;99.90;;;;;;4942468;28;89464;-34
2021/12/18 04:16:53;;;;;;;2.78;1.70;;;6.40;99.90;;;;;;4942812;28;89898;-34
2021/12/18 04:19:19;;;;;;;2.95;1.85;;;6.40;99.90;;;;;;4944162;28;89656;-36
2021/12/18 04:21:46;;;;;;;3.50;1.95;;;6.40;99.90;;;;;;4943729;28;89711;-36
2021/12/18 04:24:11;;;;;;;4.63;2.45;;;6.40;99.90;;;;;;4943819;28;90043;-34
2021/12/18 04:26:37;;;;;;;3.47;2.50;;;6.40;99.90;;;;;;4943397;28;91512;-34
2021/12/18 04:29:06;;;;;;;3.72;2.83;;;6.40;99.90;;;;;;4943631;28;89195;-34
2021/12/18 04:31:33;;;;;;;4.40;2.45;;;6.50;99.90;;;;;;4943982;28;90626;-35
2021/12/18 04:33:59;;;;;;;4.90;2.45;;;6.40;99.90;;;;;;4943048;28;90460;-32
2021/12/18 04:36:24;;;;;;;5.05;2.67;;;6.40;99.90;;;;;;4942711;28;89553;-33
2021/12/18 04:38:50;;;;;;;1.65;1.45;;;6.40;99.90;;;;;;4943150;28;90208;-36
2021/12/18 04:41:22;;;;;;;2.63;2.00;;;6.40;99.90;;;;;;4943958;28;88951;-34
2021/12/18 04:43:48;;;;;;;4.68;2.17;;;6.40;99.90;;;;;;4942896;28;90257;-34
2021/12/18 04:46:14;;;;;;;4.57;2.50;;;6.40;99.90;;;;;;4942880;28;90522;-35
2021/12/18 04:48:40;;;;;;;7.05;2.92;;;6.40;99.90;;;;;;4943828;28;88961;-34
2021/12/18 04:51:05;;;;;;;5.43;2.95;;;6.40;99.90;;;;;;4944010;28;87487;-33
2021/12/18 04:53:31;;;;;;;6.95;2.50;;;6.40;99.90;;;;;;4943047;28;90239;-34
2021/12/18 04:55:56;;;;;;;2.67;2.33;;;6.40;99.90;;;;;;4942956;28;90732;-35
2021/12/18 04:58:22;;;;;;;2.67;2.47;;;6.40;99.90;;;;;;4943012;28;87777;-36
2021/12/18 05:00:48;;;;;;;3.90;2.22;;;6.40;99.90;;;;;;4942887;28;89307;-33
2021/12/18 05:03:16;;;;;;;3.80;1.73;;;6.40;99.90;;;;;;4943275;28;90603;-32
2021/12/18 05:05:42;;;;;;;3.45;2.53;;;6.30;99.90;;;;;;4942781;28;89464;-34
2021/12/18 05:08:07;;;;;;;2.15;1.83;;;6.30;99.90;;;;;;4943744;28;88932;-31
2021/12/18 05:10:33;;;;;;;6.25;2.63;;;6.30;99.90;;;;;;4943284;28;90160;-34
2021/12/18 05:12:59;;;;;;;2.55;2.35;;;6.30;99.90;;;;;;4942551;28;90125;-33
2021/12/18 05:15:24;;;;;;;4.28;2.80;;;6.30;99.90;;;;;;4942901;28;90011;-35
2021/12/18 05:17:50;;;;;;;4.90;2.80;;;6.30;99.90;;;;;;4943345;28;89925;-33
2021/12/18 05:20:16;;;;;;;5.97;2.42;;;6.30;99.90;;;;;;4942754;28;89001;-32
2021/12/18 05:22:41;;;;;;;4.88;3.00;;;6.30;99.90;;;;;;4941923;28;90773;-36
2021/12/18 05:25:08;;;;;;;5.13;2.78;;;6.30;99.90;;;;;;4943139;28;89430;-36
2021/12/18 05:27:34;;;;;;;3.40;2.53;;;6.30;99.90;;;;;;4943177;28;88123;-33
2021/12/18 05:29:59;;;;;;;4.50;2.40;;;6.30;99.90;;;;;;4942770;28;89250;-31
2021/12/18 05:32:25;;;;;;;4.13;2.67;;;6.30;99.90;;;;;;4942975;28;92867;-33
2021/12/18 05:34:51;;;;;;;4.88;2.85;;;6.30;99.90;;;;;;4941589;28;89609;-33
2021/12/18 05:37:31;;;;;;;4.35;3.15;;;6.30;99.90;;;;;;4943235;28;89600;-36
2021/12/18 05:39:57;;;;;;;2.65;2.42;;;6.30;99.90;;;;;;4942605;28;87921;-35
2021/12/18 05:42:23;;;;;;;5.22;2.58;;;6.30;99.90;;;;;;4942324;28;90303;-31
2021/12/18 05:44:49;;;;;;;5.60;2.78;;;6.30;99.90;;;;;;4941445;28;88686;-33
2021/12/18 05:47:15;;;;;;;3.95;2.70;;;6.30;99.90;;;;;;4942745;28;89641;-36
2021/12/18 05:49:40;;;;;;;3.97;2.72;;;6.30;99.90;;;;;;4942968;28;89554;-35
2021/12/18 05:52:07;;;;;;;7.22;2.78;;;6.30;99.90;;;;;;4942543;28;90340;-36
2021/12/18 05:54:35;;;;;;;4.78;2.88;;;6.30;99.90;;;;;;4942606;28;89739;-34
2021/12/18 05:57:05;;;;;;;;;;;6.30;99.90;;;;;;4942657;28;87679;-33
2021/12/18 05:59:31;;;;;;;6.80;3.13;;;6.30;99.90;;;;;;4943098;28;88784;-32
2021/12/18 06:01:57;;;;;;;9.82;3.92;;;6.30;99.90;;;;;;4941579;28;90328;-33
2021/12/18 06:04:22;;;;;;;3.60;2.53;;;6.30;99.90;;;;;;4942325;28;90629;-35
2021/12/18 06:06:48;;;;;;;5.38;3.10;;;6.30;99.90;;;;;;4941749;28;89337;-33
2021/12/18 06:09:13;;;;;;;7.57;2.78;;;6.30;99.90;;;;;;4941933;28;88173;-32
2021/12/18 06:11:41;;;;;;;4.20;2.58;;;6.40;99.90;;;;;;4941504;28;91045;-32
2021/12/18 06:14:07;;;;;;;3.47;2.60;;;6.30;99.90;;;;;;4941724;28;90173;-33
2021/12/18 06:16:33;;;;;;;4.43;2.15;;;6.30;99.90;;;;;;4942646;28;87468;-34
2021/12/18 06:18:58;;;;;;;6.93;2.67;;;6.30;99.90;;;;;;4941654;28;89057;-33
2021/12/18 06:21:24;;;;;;;5.00;2.75;;;6.40;99.90;;;;;;4941456;28;89650;-33
2021/12/18 06:23:53;;;;;;;5.70;2.85;;;6.40;99.90;;;;;;4941667;28;90593;-32
2021/12/18 06:26:20;;;;;;;;;;;6.40;99.90;;;;;;4942882;28;89237;-33
2021/12/18 06:28:45;;;;;;;5.35;3.38;;;6.40;99.90;;;;;;4942823;28;87670;-35
2021/12/18 06:31:11;;;;;;;5.32;3.22;;;6.40;99.90;;;;;;4942596;28;90316;-34
2021/12/18 06:33:36;;;;;;;6.13;2.85;;;6.40;99.90;;;;;;4941941;28;89700;-35
2021/12/18 06:36:03;;;;;;;3.10;2.05;;;6.40;99.90;;;;;;4941389;28;87674;-32
2021/12/18 06:38:29;;;;;;;3.78;2.35;;;6.40;99.90;;;;;;4941945;28;88416;-35
2021/12/18 06:40:55;;;;;;;4.28;2.88;;;6.40;99.90;;;;;;4937387;28;90764;-35
2021/12/18 06:43:20;;;;;;;5.80;2.67;;;6.40;99.90;;;;;;4941233;28;90711;-33
2021/12/18 06:45:46;;;;;;;3.30;2.97;;;6.40;99.90;;;;;;4940204;28;88158;-34
2021/12/18 06:48:12;;;;;;;6.13;3.10;;;6.40;99.90;;;;;;4940317;28;88220;-33
2021/12/18 06:50:38;;;;;;;6.00;3.40;;;6.40;99.90;;;;;;4941312;28;90236;-32
2021/12/18 06:53:04;;;;;;;4.07;2.92;;;6.40;99.90;;;;;;4940854;28;89355;-32
2021/12/18 06:55:30;;;;;;;4.97;2.65;;;6.40;99.90;;;;;;4941938;28;87579;-32
2021/12/18 06:57:56;;;;;;;5.55;3.10;;;6.40;99.90;;;;;;4941416;28;87692;-32
2021/12/18 07:00:23;;;;;;;5.05;2.63;;;6.40;99.90;;;;;;4940080;28;90011;-33
2021/12/18 07:02:49;;;;;;;4.95;2.33;;;6.40;99.90;;;;;;4940309;28;90552;-35
2021/12/18 07:05:15;;;;;;;3.75;2.67;;;6.40;99.90;;;;;;4940977;28;90015;-32
2021/12/18 07:07:41;;;;;;;4.30;2.40;;;6.40;99.90;;;;;;4941117;28;88689;-35
2021/12/18 07:10:09;;;;;;;6.07;2.88;;;6.40;99.90;;;;;;4942204;28;90250;-33
2021/12/18 07:12:35;;;;;;;5.18;2.80;;;6.50;99.90;;;;;;4940909;28;91371;-32
2021/12/18 07:15:04;;;;;;;6.93;2.92;;;6.40;99.90;;;;;;4940664;28;88595;-35
2021/12/18 07:17:29;;;;;;;5.00;3.17;;;6.40;99.90;;;;;;4940156;28;89163;-35
2021/12/18 07:19:55;;;;;;;5.55;2.85;;;6.40;99.90;;;;;;4940500;28;90641;-34
2021/12/18 07:22:20;;;;;;;5.22;2.75;;;6.40;99.90;;;;;;4941569;28;90070;-31
2021/12/18 07:24:46;;;;;;;6.13;2.83;;;6.40;99.90;;;;;;4944330;28;87571;-34
2021/12/18 07:27:12;;;;;;;6.45;2.70;;;6.40;99.90;;;;;;4944375;28;88296;-36
2021/12/18 07:29:37;;;;;;;3.80;2.20;;;6.40;99.90;;;;;;4944167;28;89896;-35
2021/12/18 07:32:03;;;;;;;6.68;3.45;;;6.50;99.90;;;;;;4942800;28;91536;-33
2021/12/18 07:34:29;;;;;;;5.53;3.50;;;6.40;99.90;;;;;;4943941;28;87642;-37
2021/12/18 07:36:54;;;;;;;7.72;2.70;;;6.50;99.90;;;;;;4944156;28;88993;-32
2021/12/18 07:39:20;;;;;;;4.70;2.90;;;6.40;99.90;;;;;;4943825;28;91159;-33
2021/12/18 07:41:46;;;;;;;5.03;2.70;;;6.50;99.90;;;;;;4944003;28;90760;-34
2021/12/18 07:44:11;;;;;;;10.65;3.00;;;6.40;99.90;;;;;;4944054;28;90071;-39
2021/12/18 07:46:39;;;;;;;4.68;2.90;;;6.50;99.90;;;;;;4942140;28;88334;-37
2021/12/18 07:49:08;;;;;;;7.28;3.22;;;6.40;99.90;;;;;;4942954;28;90633;-34
2021/12/18 07:51:34;;;;;;;5.18;2.72;;;6.50;99.90;;;;;;4944007;28;89569;-34
2021/12/18 07:54:00;;;;;;;4.95;3.22;;;6.50;99.90;;;;;;4943105;28;88054;-31
2021/12/18 07:56:26;;;;;;;3.10;2.80;;;6.50;99.90;;;;;;4944482;28;90079;-32
2021/12/18 07:58:53;;;;;;;7.65;3.33;;;6.50;99.90;;;;;;4943478;28;90710;-32
2021/12/18 08:01:18;;;;;;;4.78;2.90;;;6.50;99.90;;;;;;4942445;28;89424;-33
2021/12/18 08:03:44;;;;;;;5.63;3.85;;;6.50;99.90;;;;;;4943701;28;87704;-35
2021/12/18 08:06:10;;;;;;;6.93;3.50;;;6.50;99.90;;;;;;4942926;28;89629;-33
2021/12/18 08:08:36;;;;;;;5.47;3.38;;;6.60;99.90;;;;;;4943062;28;90313;-34
2021/12/18 08:11:03;;;;;;;7.43;3.75;;;6.60;99.90;;;;;;4942815;28;89630;-34
2021/12/18 08:13:28;;;;;;;7.32;3.00;;;6.60;99.90;;;;;;4941674;28;89487;-31
2021/12/18 08:15:54;;;;;;;5.60;3.17;;;6.60;99.90;;;;;;4943392;28;87595;-32
2021/12/18 08:18:19;;;;;;;6.95;3.42;;;6.60;99.90;;;;;;4943128;28;90713;-33
2021/12/18 08:20:45;;;;;;;6.97;4.13;;;6.60;99.90;;;;;;4943187;28;89660;-34
2021/12/18 08:23:11;;;;;;;6.72;3.38;;;6.70;99.90;;;;;;4944168;28;88605;-32
2021/12/18 08:25:37;;;;;;;4.00;3.28;;;6.70;99.90;;;;;;4943371;28;89242;-33
2021/12/18 08:28:04;;;;;;;4.82;3.20;;;6.70;99.90;;;;;;4940194;28;90135;-34
2021/12/18 08:30:32;;;;;;;7.40;4.15;;;6.70;99.90;;;;;;4942233;28;90388;-35
2021/12/18 08:32:58;;;;;;;4.93;3.90;;;6.70;99.90;;;;;;4940438;28;88428;-34
2021/12/18 08:35:28;;;;;;;10.43;4.47;;;6.80;99.90;;;;;;4942509;28;88351;-35
2021/12/18 08:37:55;;;;;;;8.88;4.57;;;6.80;99.90;;;;;;4942044;28;91242;-32
2021/12/18 08:40:22;;;;;;;8.45;3.63;;;6.80;99.90;;;;;;4942524;28;89066;-34
2021/12/18 08:42:48;;;;;;;6.57;3.47;;;6.80;99.90;;;;;;4941681;28;89521;-35
2021/12/18 08:45:15;;;;;;;5.75;4.25;;;6.80;99.90;;;;;;4940910;28;89938;-33
2021/12/18 08:47:40;;;;;;;7.05;4.45;;;6.80;99.90;;;;;;4942353;28;90673;-36
2021/12/18 08:50:09;;;;;;;7.38;4.22;;;6.90;99.90;;;;;;4942047;28;90115;-35
2021/12/18 08:52:34;;;;;;;7.43;5.47;;;6.90;99.90;;;;;;4940283;28;88510;-35
2021/12/18 08:55:00;;;;;;;13.50;4.90;;;7.00;99.90;;;;;;4940750;28;87627;-33
2021/12/18 08:57:26;;;;;;;10.82;4.20;;;7.00;99.90;;;;;;4942869;28;90522;-33
2021/12/18 08:59:52;;;;;;;6.22;3.90;;;7.00;99.90;;;;;;4941158;28;90194;-34
2021/12/18 09:02:18;;;;;;;8.40;5.07;;;7.00;99.90;;;;;;4941134;28;89536;-31
2021/12/18 09:04:43;;;;;;;8.52;5.10;;;7.00;99.90;;;;;;4941468;28;88083;-35
2021/12/18 09:07:09;;;;;;;5.65;4.28;;;7.00;99.90;;;;;;4941993;28;90501;-36
2021/12/18 09:09:36;;;;;;;8.18;4.60;;;7.00;99.90;;;;;;4938962;28;91028;-34
2021/12/18 09:12:01;;;;;;;16.38;5.53;;;7.10;99.90;;;;;;4940041;28;89841;-36
2021/12/18 09:14:27;;;;;;;12.23;5.32;;;7.10;99.90;;;;;;4939890;28;89504;-33
2021/12/18 09:16:53;;;;;;;11.20;5.45;;;7.10;99.90;;;;;;4939659;28;90217;-35
2021/12/18 09:19:19;;;;;;;16.52;5.40;;;7.20;99.90;;;;;;4937473;28;89574;-35
2021/12/18 09:21:45;;;;;;;9.40;5.07;;;7.20;99.90;;;;;;4939693;28;88199;-36
2021/12/18 09:24:11;;;;;;;10.27;5.97;;;7.20;99.90;;;;;;4939516;28;88190;-35
2021/12/18 09:26:36;;;;;;;10.45;5.70;;;7.20;99.90;;;;;;4939715;28;90155;-33
2021/12/18 09:29:02;;;;;;;8.70;4.57;;;7.20;99.90;;;;;;4939765;28;89768;-32
2021/12/18 09:31:28;;;;;;;10.88;6.18;;;7.30;99.90;;;;;;4940981;28;88353;-35
2021/12/18 09:33:54;;;;;;;11.20;6.40;;;7.30;99.90;;;;;;4940385;28;88379;-34
2021/12/18 09:36:20;;;;;;;13.20;5.85;;;7.30;99.90;;;;;;4940089;28;89956;-37
2021/12/18 09:38:46;;;;;;;8.40;5.40;;;7.30;99.90;;;;;;4940091;28;88945;-33
2021/12/18 09:41:11;;;;;;;10.45;6.05;;;7.40;99.90;;;;;;4935063;28;89194;-34
2021/12/18 09:43:37;;;;;;;14.10;6.20;;;7.40;99.90;;;;;;4936225;28;87904;-37
2021/12/18 09:46:05;;;;;;;10.88;5.72;;;7.50;99.90;;;;;;4938203;28;92236;-34
2021/12/18 09:48:31;;;;;;;7.70;5.13;;;7.50;99.90;;;;;;4939901;28;89287;-34
2021/12/18 09:50:58;;;;;;;9.13;5.78;;;7.50;99.90;;;;;;4940421;28;89269;-35
2021/12/18 09:53:25;;;;;;;9.38;5.93;;;7.60;99.90;;;;;;4940494;28;89559;-33
2021/12/18 09:55:50;;;;;;;10.05;5.63;;;7.70;99.90;;;;;;4939599;28;90308;-35
2021/12/18 09:58:16;;;;;;;6.45;5.20;;;7.70;99.90;;;;;;4938660;28;89833;-34
2021/12/18 10:00:42;;;;;;;9.27;5.93;;;7.80;99.90;;;;;;4939303;28;89755;-33
2021/12/18 10:03:08;;;;;;;20.23;6.45;;;7.90;99.90;;;;;;4940766;28;88974;-34
2021/12/18 10:05:38;;;;;;;13.23;4.90;;;7.90;99.90;;;;;;4940044;28;89174;-31
2021/12/18 10:08:17;;;;;;;9.27;4.55;;;7.90;99.90;;;;;;4939581;28;90515;-35
2021/12/18 10:10:58;;;;;;;9.07;3.95;;;8.00;99.90;;;;;;4939796;28;89090;-33
2021/12/18 10:13:24;;;;;;;16.27;4.22;;;8.00;99.90;;;;;;4938849;28;89967;-34
2021/12/18 10:16:08;;;;;;;7.13;4.35;;;8.10;99.90;;;;;;4938893;28;90298;-35
2021/12/18 10:18:34;;;;;;;7.30;3.65;;;8.10;99.90;;;;;;4939744;28;90018;-36
2021/12/18 10:21:08;;;;;;;6.93;3.65;;;8.10;99.90;;;;;;4940309;28;89311;-32
2021/12/18 10:23:33;;;;;;;8.48;4.57;;;8.20;99.90;;;;;;4939844;28;87586;-36
2021/12/18 10:25:59;;;;;;;5.43;3.97;;;8.20;99.90;;;;;;4938667;28;92151;-35
2021/12/18 10:28:27;;;;;;;11.05;4.18;;;8.30;99.90;;;;;;4939061;28;89751;-34
2021/12/18 10:30:56;;;;;;;10.70;4.78;;;8.30;99.90;;;;;;4938698;28;89797;-36
2021/12/18 10:33:29;;;;;;;7.72;4.05;;;8.30;99.90;;;;;;4940190;28;90126;-34
2021/12/18 10:35:58;;;;;;;8.00;4.13;;;8.40;99.90;;;;;;4939246;28;90580;-36
2021/12/18 10:38:50;;;;;;;8.95;4.13;;;8.40;99.90;;;;;;4939076;28;89221;-35
2021/12/18 10:41:26;;;;;;;5.35;3.63;;;8.50;99.90;;;;;;4938705;28;87603;-34
2021/12/18 10:43:54;;;;;;;7.20;3.08;;;8.50;99.90;;;;;;4938469;28;88472;-36
2021/12/18 10:46:20;;;;;;;7.00;4.18;;;8.50;99.90;;;;;;4939345;28;88587;-37
2021/12/18 10:49:06;;;;;;;7.93;3.75;;;8.50;99.90;;;;;;4939073;28;89806;-37
2021/12/18 10:51:33;;;;;;;6.93;3.45;;;8.50;99.90;;;;;;4939578;28;88680;-36
2021/12/18 10:54:04;;;;;;;12.50;3.80;;;8.60;99.90;;;;;;4939309;28;89547;-33
2021/12/18 10:56:42;;;;;;;7.07;3.50;;;8.60;99.90;;;;;;4939081;28;90422;-34
2021/12/18 10:59:32;;;;;;;12.32;3.00;;;8.70;99.90;;;;;;4942384;28;89670;-33
2021/12/18 11:02:01;;;;;;;4.75;3.20;;;8.70;99.90;;;;;;4942045;28;88059;-37
2021/12/18 11:04:38;;;;;;;7.78;3.45;;;8.80;99.90;;;;;;4942023;28;89413;-36
2021/12/18 11:07:22;;;;;;;12.32;4.22;;;8.70;99.90;;;;;;4940779;28;89762;-36
2021/12/18 11:15:31;;;;;;;13.77;4.55;;;8.80;99.90;;;;;;4942027;28;87808;-35
2021/12/18 11:17:58;;;;;;;10.80;4.05;;;8.90;99.90;;;;;;4941976;28;90136;-36
2021/12/18 11:20:24;;;;;;;7.28;3.55;;;8.90;99.90;;;;;;4942732;28;89416;-35
2021/12/18 11:22:52;;;;;;;7.57;3.92;;;8.90;99.90;;;;;;4942514;28;89733;-35
2021/12/18 11:25:21;;;;;;;11.70;3.80;;;9.00;99.90;;;;;;4940422;28;88603;-33
2021/12/18 11:27:48;;;;;;;13.40;3.53;;;9.00;99.90;;;;;;4940344;28;90143;-39
2021/12/18 11:30:16;;;;;;;7.18;3.10;;;9.00;99.90;;;;;;4942407;28;89665;-37
2021/12/18 11:32:53;;;;;;;13.50;4.03;;;9.00;99.90;;;;;;4941856;28;88293;-37
2021/12/18 11:35:20;;;;;;;9.02;3.97;;;9.00;99.90;;;;;;4943576;28;90348;-34
2021/12/18 11:37:55;;;;;;;8.55;4.15;;;9.10;99.90;;;;;;4941675;28;90750;-36
2021/12/18 11:40:33;;;;;;;8.30;4.50;;;9.10;99.90;;;;;;4942456;28;89676;-34
2021/12/18 11:42:58;;;;;;;10.52;4.63;;;9.10;99.90;;;;;;4942008;28;87606;-37
2021/12/18 11:45:32;;;;;;;9.13;4.55;;;9.10;99.90;;;;;;4942853;28;89484;-36
2021/12/18 11:47:59;;;;;;;13.73;4.15;;;9.10;99.90;;;;;;4942642;28;90093;-33
2021/12/18 11:50:31;;;;;;;9.50;5.05;;;9.20;99.90;;;;;;4941371;28;90715;-38
2021/12/18 11:53:11;;;;;;;6.05;3.85;;;9.20;99.90;;;;;;4941718;28;88271;-35
2021/12/18 11:59:42;;;;;;;12.05;3.90;;;9.20;99.90;;;;;;4943314;28;89383;-35
2021/12/18 12:02:10;;;;;;;8.90;4.78;;;9.30;99.90;;;;;;4934418;28;89004;-35
2021/12/18 12:04:59;;;;;;;7.90;5.30;;;9.30;99.90;;;;;;4919206;28;88947;-34
2021/12/18 12:07:27;;;;;;;9.00;4.35;;;9.30;99.90;;;;;;4929367;28;89438;-38
2021/12/18 12:10:20;;;;;;;62.57;37.10;;;9.30;99.90;;;;;;4922792;28;90940;-34
2021/12/18 12:12:55;;;;;;;34.80;18.90;;;9.30;99.90;;;;;;4930279;28;89750;-36
2021/12/18 12:15:24;;;;;;;17.50;7.55;;;9.30;99.90;;;;;;4929521;28;89497;-37
2021/12/18 12:18:01;;;;;;;11.63;6.35;;;9.30;99.90;;;;;;4930025;28;89274;-34
2021/12/18 12:20:39;;;;;;;11.48;4.95;;;9.30;99.90;;;;;;4933309;28;89796;-34
2021/12/18 12:23:06;;;;;;;8.00;5.38;;;9.30;99.90;;;;;;4931087;28;89603;-40
2021/12/18 12:25:39;;;;;;;8.90;3.80;;;9.30;99.90;;;;;;4932025;28;89683;-35
2021/12/18 12:28:12;;;;;;;15.05;12.13;;;9.40;99.90;;;;;;4931423;28;89354;-38
2021/12/18 12:30:48;;;;;;;6.88;3.90;;;9.40;99.90;;;;;;4931099;28;91088;-37
2021/12/18 12:33:37;;;;;;;5.45;3.55;;;9.30;99.90;;;;;;4931442;28;88748;-38
2021/12/18 12:36:08;;;;;;;;;;;9.30;99.90;;;;;;4930982;28;89531;-35
2021/12/18 12:38:41;;;;;;;11.77;3.78;;;9.30;99.90;;;;;;4933559;28;88389;-35
2021/12/18 12:41:28;;;;;;;11.10;4.45;;;9.40;99.90;;;;;;4923380;28;89783;-35
2021/12/18 12:44:00;;;;;;;4.95;3.85;;;9.40;99.90;;;;;;4931172;28;90223;-36
2021/12/18 12:46:27;;;;;;;7.40;4.70;;;9.40;99.90;;;;;;4928537;28;90557;-34
2021/12/18 12:49:16;;;;;;;7.50;4.30;;;9.30;99.90;;;;;;4918834;28;88451;-36
2021/12/18 12:51:57;;;;;;;6.03;3.75;;;9.30;99.90;;;;;;4931337;28;90755;-36
2021/12/18 12:54:41;;;;;;;3.95;3.53;;;9.30;99.90;;;;;;4925711;28;90059;-35
2021/12/18 12:57:22;;;;;;;6.95;3.33;;;9.30;99.90;;;;;;4923222;28;88483;-35
2021/12/18 12:59:48;;;;;;;9.77;6.63;;;9.30;99.90;;;;;;4931361;28;88987;-37
2021/12/18 13:02:15;;;;;;;12.25;3.65;;;9.30;99.90;;;;;;4928035;28;89970;-34
2021/12/18 13:04:41;;;;;;;6.43;3.60;;;9.20;99.90;;;;;;4927344;28;88923;-36
2021/12/18 13:07:08;;;;;;;8.65;3.60;;;9.30;99.90;;;;;;4931122;28;88704;-34
2021/12/18 13:09:35;;;;;;;13.32;4.53;;;9.20;99.90;;;;;;4931557;28;88569;-33
2021/12/18 13:12:03;;;;;;;7.97;3.45;;;9.20;99.90;;;;;;4931102;28;92841;-36
2021/12/18 13:14:43;;;;;;;5.72;2.60;;;9.20;99.90;;;;;;4930150;28;90428;-35
2021/12/18 13:17:19;;;;;;;6.82;3.10;;;9.20;99.90;;;;;;4930458;28;88550;-37
2021/12/18 13:20:12;;;;;;;4.35;3.47;;;9.20;99.90;;;;;;4930476;28;89055;-35
2021/12/18 13:22:37;;;;;;;7.15;3.33;;;9.20;99.90;;;;;;4922985;28;90812;-35
2021/12/18 13:25:10;;;;;;;3.85;2.83;;;9.20;99.90;;;;;;4931269;28;89990;-34
2021/12/18 13:27:41;;;;;;;7.60;3.03;;;9.20;99.90;;;;;;4931746;28;89688;-34
2021/12/18 13:30:15;;;;;;;7.35;2.40;;;9.20;99.90;;;;;;4931349;28;89705;-36
2021/12/18 13:32:53;;;;;;;4.65;3.17;;;9.20;99.90;;;;;;4930526;28;91469;-36
2021/12/18 13:35:20;;;;;;;6.25;3.65;;;9.20;99.90;;;;;;4930403;28;91689;-35
2021/12/18 13:38:17;;;;;;;5.38;3.13;;;9.20;99.90;;;;;;4930030;28;89248;-36
2021/12/18 13:40:45;;;;;;;4.82;3.45;;;9.20;99.90;;;;;;4868304;28;89981;-37
2021/12/18 13:43:31;;;;;;;5.75;3.58;;;9.20;99.90;;;;;;4921322;28;90499;-36
2021/12/18 13:46:01;;;;;;;5.28;3.30;;;9.20;99.90;;;;;;4937495;28;90072;-34
2021/12/18 13:48:30;;;;;;;7.45;2.78;;;9.20;99.90;;;;;;4940890;28;88100;-34
2021/12/18 13:50:58;;;;;;;7.95;3.15;;;9.20;99.90;;;;;;4938583;28;89950;-33
2021/12/18 13:53:24;;;;;;;11.27;3.08;;;9.20;99.90;;;;;;4930261;28;90220;-34
2021/12/18 13:55:55;;;;;;;4.93;2.72;;;9.20;99.90;;;;;;4898602;28;89738;-36